Hopewell, Texas
Current Conditions -  °F | °C
As of 2:35 AM on Saturday 29 Nov 2014 (Local Time) from KDKR Reporting Station
Haze Haze  
Wind Chill: 57°   Ceiling: Unl
Heat Index: 57°   Visibility: 5mi
Dew Point: 57°   Wind: 5mph
Humidity: 100%   Direction: 180°S
Pressure: 30.1"   Gusts: NA
Location:  31.2828°N, 95.4821°W
Report Text: KDKR 290835Z AUTO 18004KT 5SM BR CLR 14/14 A3010 RMK AO2
Loading
Personal Weather Stations






























Interactive Weather Map New forecast layout! Learn more

10-Day Weather Forecast

Advertisements
Track Severe Weather on mobile